createdAt,value
2023-01-25T00:00:17.536Z,1023.20
2023-01-25T00:01:03.513Z,1022.99
2023-01-25T00:01:49.581Z,1022.99
2023-01-25T00:02:35.585Z,1022.99
2023-01-25T00:03:21.605Z,1023.20
2023-01-25T00:04:07.561Z,1023.20
2023-01-25T00:04:53.527Z,1023.20
2023-01-25T00:05:39.508Z,1022.99
2023-01-25T00:06:25.537Z,1022.99
2023-01-25T00:07:11.617Z,1022.99
2023-01-25T00:07:57.551Z,1023.20
2023-01-25T00:08:43.507Z,1023.20
2023-01-25T00:09:29.629Z,1022.99
2023-01-25T00:10:15.615Z,1022.99
2023-01-25T00:11:01.645Z,1023.09
2023-01-25T00:11:47.484Z,1023.09
2023-01-25T00:12:33.508Z,1023.09
2023-01-25T00:13:19.484Z,1023.09
2023-01-25T00:14:05.765Z,1022.89
2023-01-25T00:14:51.527Z,1022.89
2023-01-25T00:15:37.619Z,1022.99
2023-01-25T00:16:23.573Z,1022.99
2023-01-25T00:17:09.584Z,1022.89
2023-01-25T00:17:55.673Z,1022.89
2023-01-25T00:18:41.618Z,1022.99
2023-01-25T00:19:27.632Z,1022.99
2023-01-25T00:20:13.548Z,1022.79
2023-01-25T00:20:59.539Z,1022.89
2023-01-25T00:21:45.692Z,1022.89
2023-01-25T00:22:31.573Z,1022.89
2023-01-25T00:23:17.521Z,1022.89
2023-01-25T00:24:03.589Z,1022.69
2023-01-25T00:24:49.605Z,1022.69
2023-01-25T00:25:35.628Z,1022.89
2023-01-25T00:26:21.602Z,1023.09
2023-01-25T00:27:07.503Z,1022.99
2023-01-25T00:27:53.572Z,1022.99
2023-01-25T00:28:39.578Z,1022.89
2023-01-25T00:29:25.583Z,1022.69
2023-01-25T00:30:11.691Z,1022.69
2023-01-25T00:30:57.594Z,1022.89
2023-01-25T00:31:43.687Z,1022.89
2023-01-25T00:32:29.714Z,1022.79
2023-01-25T00:33:15.651Z,1022.99
2023-01-25T00:34:02.063Z,1022.89
2023-01-25T00:34:47.565Z,1022.89
2023-01-25T00:35:33.561Z,1022.59
2023-01-25T00:36:19.612Z,1022.89
2023-01-25T00:37:05.650Z,1022.69
2023-01-25T00:37:51.690Z,1022.69
2023-01-25T00:38:37.571Z,1022.89
2023-01-25T00:39:23.635Z,1022.79
2023-01-25T00:40:09.576Z,1022.89
2023-01-25T00:40:55.600Z,1022.89
2023-01-25T00:41:41.665Z,1022.79
2023-01-25T00:42:27.604Z,1022.79
2023-01-25T00:43:13.586Z,1022.59
2023-01-25T00:43:59.611Z,1022.69
2023-01-25T00:44:45.751Z,1022.69
2023-01-25T00:45:31.638Z,1022.79
2023-01-25T00:46:17.680Z,1022.79
2023-01-25T00:47:03.594Z,1022.69
2023-01-25T00:47:49.700Z,1022.69
2023-01-25T00:48:35.633Z,1022.69
2023-01-25T00:49:21.639Z,1022.59
2023-01-25T00:50:07.640Z,1022.99
2023-01-25T00:50:53.634Z,1022.99
2023-01-25T00:51:39.614Z,1022.59
2023-01-25T00:52:25.668Z,1022.79
2023-01-25T00:53:11.649Z,1022.59
2023-01-25T00:53:57.643Z,1022.69
2023-01-25T00:54:43.675Z,1022.69
2023-01-25T00:55:29.647Z,1022.69
2023-01-25T00:56:15.691Z,1022.59
2023-01-25T00:57:01.619Z,1022.69
2023-01-25T00:57:47.657Z,1022.69
2023-01-25T00:58:33.595Z,1022.59
2023-01-25T00:59:19.707Z,1022.79
2023-01-25T01:00:05.814Z,1022.59
2023-01-25T01:00:52.035Z,1022.59
2023-01-25T01:01:37.709Z,1022.89
2023-01-25T01:02:23.699Z,1022.48
2023-01-25T01:03:09.759Z,1022.59
2023-01-25T01:03:55.716Z,1022.59
2023-01-25T01:04:41.728Z,1022.59
2023-01-25T01:05:27.726Z,1022.79
2023-01-25T01:06:13.624Z,1022.79
2023-01-25T01:06:59.698Z,1022.69
2023-01-25T01:07:45.742Z,1022.69
2023-01-25T01:08:31.682Z,1022.69
2023-01-25T01:09:17.666Z,1022.79
2023-01-25T01:10:03.681Z,1022.59
2023-01-25T01:10:49.889Z,1022.59
2023-01-25T01:11:35.878Z,1022.59
2023-01-25T01:12:21.679Z,1022.69
2023-01-25T01:13:07.873Z,1022.59
2023-01-25T01:13:53.838Z,1022.59
2023-01-25T01:14:39.916Z,1022.69
2023-01-25T01:15:25.882Z,1022.38
2023-01-25T01:16:11.918Z,1022.32
2023-01-25T01:16:58.142Z,1022.69
2023-01-25T01:17:43.859Z,1022.69
2023-01-25T01:18:29.808Z,1022.48
2023-01-25T01:19:15.904Z,1022.59
2023-01-25T01:20:01.811Z,1022.69
2023-01-25T01:20:47.848Z,1022.69
2023-01-25T01:21:33.847Z,1022.38
2023-01-25T01:22:19.824Z,1022.79
2023-01-25T01:23:05.847Z,1022.59
2023-01-25T01:23:51.898Z,1022.59
2023-01-25T01:24:37.783Z,1022.69
2023-01-25T01:25:23.851Z,1022.69
2023-01-25T01:26:09.928Z,1022.48
2023-01-25T01:26:55.899Z,1022.48
2023-01-25T01:27:42.674Z,1022.69
2023-01-25T01:28:27.907Z,1022.59
2023-01-25T01:29:13.850Z,1022.59
2023-01-25T01:29:59.822Z,1022.48
2023-01-25T01:30:46.112Z,1022.48
2023-01-25T01:31:32.019Z,1022.69
2023-01-25T01:32:17.973Z,1022.59
2023-01-25T01:33:03.978Z,1022.79
2023-01-25T01:33:49.875Z,1022.79
2023-01-25T01:34:35.836Z,1022.69
2023-01-25T01:35:21.908Z,1022.69
2023-01-25T01:36:07.871Z,1022.59
2023-01-25T01:36:53.915Z,1022.59
2023-01-25T01:37:39.939Z,1022.48
2023-01-25T01:38:25.910Z,1022.69
2023-01-25T01:39:11.842Z,1022.79
2023-01-25T01:39:57.856Z,1022.48
2023-01-25T01:40:43.921Z,1022.48
2023-01-25T01:41:30.097Z,1022.69
2023-01-25T01:42:15.958Z,1022.48
2023-01-25T01:43:02.001Z,1022.38
2023-01-25T01:43:47.986Z,1022.38
2023-01-25T01:44:33.915Z,1022.38
2023-01-25T01:45:19.970Z,1022.59
2023-01-25T01:46:05.981Z,1022.48
2023-01-25T01:46:51.970Z,1022.48
2023-01-25T01:47:37.884Z,1022.59
2023-01-25T01:48:24.007Z,1022.59
2023-01-25T01:49:09.805Z,1022.38
2023-01-25T01:49:55.976Z,1022.38
2023-01-25T01:50:41.936Z,1022.48
2023-01-25T01:51:27.859Z,1022.59
2023-01-25T01:52:13.834Z,1022.48
2023-01-25T01:52:59.860Z,1022.38
2023-01-25T01:53:45.904Z,1022.38
2023-01-25T01:54:31.857Z,1022.38
2023-01-25T01:55:17.860Z,1022.38
2023-01-25T01:56:04.032Z,1022.59
2023-01-25T01:56:49.951Z,1022.59
2023-01-25T01:57:35.911Z,1022.32
2023-01-25T01:58:21.899Z,1022.38
2023-01-25T01:59:07.938Z,1022.48
2023-01-25T01:59:53.948Z,1022.48
2023-01-25T02:00:39.877Z,1022.48
2023-01-25T02:01:25.990Z,1022.32
2023-01-25T02:02:12.130Z,1022.48
2023-01-25T02:02:57.903Z,1022.48
2023-01-25T02:03:43.860Z,1022.48
2023-01-25T02:04:29.926Z,1022.21
2023-01-25T02:05:15.844Z,1022.38
2023-01-25T02:06:02.299Z,1022.38
2023-01-25T02:06:47.991Z,1022.38
2023-01-25T02:07:35.002Z,1022.59
2023-01-25T02:08:19.928Z,1022.48
2023-01-25T02:09:05.980Z,1022.32
2023-01-25T02:09:51.960Z,1022.32
2023-01-25T02:10:37.964Z,1022.38
2023-01-25T02:11:24.037Z,1022.38
2023-01-25T02:12:10.000Z,1022.38
2023-01-25T02:12:55.967Z,1022.38
2023-01-25T02:13:41.938Z,1022.32
2023-01-25T02:14:27.947Z,1022.48
2023-01-25T02:15:14.015Z,1022.38
2023-01-25T02:15:59.962Z,1022.59
2023-01-25T02:16:46.027Z,1022.59
2023-01-25T02:17:31.915Z,1022.38
2023-01-25T02:18:17.968Z,1022.32
2023-01-25T02:19:04.145Z,1022.32
2023-01-25T02:19:50.027Z,1022.32
2023-01-25T02:20:35.995Z,1022.48
2023-01-25T02:21:22.005Z,1022.38
2023-01-25T02:22:07.982Z,1022.59
2023-01-25T02:22:54.053Z,1022.59
2023-01-25T02:23:39.936Z,1022.48
2023-01-25T02:24:26.145Z,1022.32
2023-01-25T02:25:12.033Z,1022.32
2023-01-25T02:25:58.102Z,1022.38
2023-01-25T02:26:43.950Z,1022.38
2023-01-25T02:27:30.071Z,1022.48
2023-01-25T02:28:16.108Z,1022.48
2023-01-25T02:29:01.967Z,1022.69
2023-01-25T02:29:47.902Z,1022.69
2023-01-25T02:30:34.125Z,1022.48
2023-01-25T02:31:20.143Z,1022.32
2023-01-25T02:32:06.075Z,1022.38
2023-01-25T02:32:52.009Z,1022.38
2023-01-25T02:33:37.971Z,1022.38
2023-01-25T02:34:24.087Z,1022.48
2023-01-25T02:35:10.415Z,1022.32
2023-01-25T02:35:56.061Z,1022.32
2023-01-25T02:36:42.034Z,1022.48
2023-01-25T02:37:28.068Z,1022.48
2023-01-25T02:38:14.011Z,1022.48
2023-01-25T02:38:59.944Z,1022.38
2023-01-25T02:39:46.033Z,1022.38
2023-01-25T02:40:32.010Z,1022.38
2023-01-25T02:41:18.129Z,1022.32
2023-01-25T02:42:04.050Z,1022.48
2023-01-25T02:42:50.048Z,1022.48
2023-01-25T02:43:36.057Z,1022.38
2023-01-25T02:44:22.032Z,1022.38
2023-01-25T02:45:08.669Z,1022.38
2023-01-25T02:45:54.013Z,1022.38
2023-01-25T02:46:40.021Z,1022.38
2023-01-25T02:47:26.222Z,1022.32
2023-01-25T02:48:12.059Z,1022.11
2023-01-25T02:48:58.046Z,1022.32
2023-01-25T02:49:44.091Z,1022.32
2023-01-25T02:50:30.059Z,1022.21
2023-01-25T02:51:16.147Z,1022.11
2023-01-25T02:52:02.037Z,1022.48
2023-01-25T02:52:48.106Z,1022.48
2023-01-25T02:53:34.032Z,1022.21
2023-01-25T02:54:20.081Z,1022.11
2023-01-25T02:55:06.296Z,1022.01
2023-01-25T02:55:52.328Z,1022.01
2023-01-25T02:56:38.037Z,1022.21
2023-01-25T02:57:24.083Z,1022.01
2023-01-25T02:58:10.067Z,1022.11
2023-01-25T02:58:56.060Z,1022.11
2023-01-25T02:59:42.144Z,1022.21
2023-01-25T03:00:28.225Z,1022.32
2023-01-25T03:01:14.084Z,1022.11
2023-01-25T03:02:00.113Z,1022.11
2023-01-25T03:02:46.138Z,1022.11
2023-01-25T03:03:32.037Z,1022.11
2023-01-25T03:04:18.047Z,1022.21
2023-01-25T03:05:04.107Z,1021.91
2023-01-25T03:05:50.096Z,1021.91
2023-01-25T03:06:36.106Z,1022.21
2023-01-25T03:07:22.153Z,1022.11
2023-01-25T03:08:08.105Z,1022.11
2023-01-25T03:08:54.027Z,1022.11
2023-01-25T03:09:40.103Z,1022.32
2023-01-25T03:10:26.141Z,1022.21
2023-01-25T03:11:12.150Z,1022.21
2023-01-25T03:11:58.132Z,1022.21
2023-01-25T03:12:44.083Z,1022.21
2023-01-25T03:13:30.034Z,1022.01
2023-01-25T03:14:16.210Z,1022.21
2023-01-25T03:15:02.580Z,1022.21
2023-01-25T03:15:48.215Z,1022.21
2023-01-25T03:16:34.311Z,1022.21
2023-01-25T03:17:20.093Z,1022.01
2023-01-25T03:18:06.085Z,1022.32
2023-01-25T03:18:52.101Z,1022.32
2023-01-25T03:19:38.077Z,1022.11
2023-01-25T03:20:24.170Z,1022.11
2023-01-25T03:21:10.055Z,1022.32
2023-01-25T03:21:56.123Z,1022.32
2023-01-25T03:22:42.108Z,1022.21
2023-01-25T03:23:28.208Z,1022.21
2023-01-25T03:24:14.201Z,1022.21
2023-01-25T03:25:00.160Z,1022.01
2023-01-25T03:25:46.270Z,1022.01
2023-01-25T03:26:32.064Z,1022.01
2023-01-25T03:27:18.247Z,1022.01
2023-01-25T03:28:04.125Z,1022.11
2023-01-25T03:28:50.198Z,1022.11
2023-01-25T03:29:36.124Z,1021.91
2023-01-25T03:30:22.207Z,1022.38
2023-01-25T03:31:08.230Z,1022.21
2023-01-25T03:31:54.350Z,1022.21
2023-01-25T03:32:40.045Z,1021.91
2023-01-25T03:33:26.149Z,1022.11
2023-01-25T03:34:12.142Z,1022.11
2023-01-25T03:34:58.177Z,1021.81
2023-01-25T03:35:44.195Z,1021.81
2023-01-25T03:36:30.111Z,1022.01
2023-01-25T03:37:16.263Z,1022.32
2023-01-25T03:38:02.391Z,1021.91
2023-01-25T03:38:48.127Z,1021.91
2023-01-25T03:39:34.130Z,1021.71
2023-01-25T03:40:20.046Z,1022.01
2023-01-25T03:41:06.075Z,1022.01
2023-01-25T03:41:52.115Z,1022.01
2023-01-25T03:42:38.097Z,1022.11
2023-01-25T03:43:24.146Z,1022.11
2023-01-25T03:44:10.076Z,1021.91
2023-01-25T03:44:56.165Z,1021.91
2023-01-25T03:45:42.185Z,1022.01
2023-01-25T03:46:28.181Z,1022.01
2023-01-25T03:47:14.197Z,1022.11
2023-01-25T03:48:00.141Z,1021.91
2023-01-25T03:48:46.246Z,1021.91
2023-01-25T03:49:32.112Z,1022.01
2023-01-25T03:50:18.088Z,1021.91
2023-01-25T03:51:04.205Z,1022.11
2023-01-25T03:51:50.157Z,1022.11
2023-01-25T03:52:36.150Z,1021.91
2023-01-25T03:53:22.062Z,1021.91
2023-01-25T03:54:08.145Z,1022.01
2023-01-25T03:54:54.145Z,1022.01
2023-01-25T03:55:40.081Z,1021.81
2023-01-25T03:56:26.152Z,1021.91
2023-01-25T03:57:12.208Z,1022.01
2023-01-25T03:57:58.172Z,1022.21
2023-01-25T03:58:44.087Z,1022.21
2023-01-25T03:59:30.107Z,1022.11
2023-01-25T04:00:16.254Z,1021.91
2023-01-25T04:01:02.150Z,1021.91
2023-01-25T04:01:48.112Z,1021.91
2023-01-25T04:02:34.236Z,1021.91
2023-01-25T04:03:20.171Z,1022.01
2023-01-25T04:04:06.188Z,1021.91
2023-01-25T04:04:52.085Z,1021.91
2023-01-25T04:05:38.156Z,1021.91
2023-01-25T04:06:24.207Z,1022.21
2023-01-25T04:07:10.171Z,1022.01
2023-01-25T04:07:56.187Z,1022.01
2023-01-25T04:08:42.144Z,1022.01
2023-01-25T04:09:28.175Z,1022.01
2023-01-25T04:10:14.212Z,1022.21
2023-01-25T04:11:00.155Z,1021.81
2023-01-25T04:11:46.173Z,1021.81
2023-01-25T04:12:32.105Z,1022.11
2023-01-25T04:13:18.173Z,1022.01
2023-01-25T04:14:04.126Z,1022.01
2023-01-25T04:14:50.195Z,1022.01
2023-01-25T04:15:36.274Z,1021.91
2023-01-25T04:16:22.628Z,1022.01
2023-01-25T04:17:08.209Z,1021.91
2023-01-25T04:17:54.166Z,1021.91
2023-01-25T04:18:40.155Z,1021.91
2023-01-25T04:19:26.206Z,1021.81
2023-01-25T04:20:12.207Z,1021.91
2023-01-25T04:20:58.178Z,1022.01
2023-01-25T04:21:44.125Z,1022.01
2023-01-25T04:22:30.146Z,1021.91
2023-01-25T04:23:16.318Z,1021.81
2023-01-25T04:24:02.259Z,1022.01
2023-01-25T04:24:48.210Z,1022.01
2023-01-25T04:25:34.219Z,1022.11
2023-01-25T04:26:20.205Z,1022.01
2023-01-25T04:27:06.228Z,1021.91
2023-01-25T04:27:52.156Z,1021.91
2023-01-25T04:28:38.230Z,1021.71
2023-01-25T04:29:35.531Z,1021.91
2023-01-25T04:30:10.279Z,1022.01
2023-01-25T04:30:56.239Z,1022.01
2023-01-25T04:31:42.415Z,1021.91
2023-01-25T04:32:28.384Z,1021.91
2023-01-25T04:33:14.215Z,1022.01
2023-01-25T04:34:00.367Z,1021.60
2023-01-25T04:34:46.279Z,1021.60
2023-01-25T04:35:32.252Z,1021.71
2023-01-25T04:36:18.190Z,1021.91
2023-01-25T04:37:04.280Z,1021.81
2023-01-25T04:37:50.253Z,1021.81
2023-01-25T04:38:36.301Z,1022.01
2023-01-25T04:39:22.713Z,1021.71
2023-01-25T04:40:08.254Z,1021.81
2023-01-25T04:40:54.235Z,1021.81
2023-01-25T04:41:40.222Z,1021.81
2023-01-25T04:42:26.213Z,1021.71
2023-01-25T04:43:12.228Z,1021.91
2023-01-25T04:43:58.249Z,1021.81
2023-01-25T04:44:44.171Z,1021.81
2023-01-25T04:45:30.402Z,1021.81
2023-01-25T04:46:16.303Z,1022.11
2023-01-25T04:47:02.223Z,1022.11
2023-01-25T04:47:48.197Z,1022.11
2023-01-25T04:48:34.201Z,1021.91
2023-01-25T04:49:20.248Z,1021.71
2023-01-25T04:50:07.314Z,1021.81
2023-01-25T04:50:52.422Z,1021.81
2023-01-25T04:51:38.221Z,1021.91
2023-01-25T04:52:24.213Z,1021.81
2023-01-25T04:53:10.218Z,1021.91
2023-01-25T04:53:56.254Z,1021.91
2023-01-25T04:54:42.259Z,1021.81
2023-01-25T04:55:28.312Z,1021.91
2023-01-25T04:56:14.213Z,1022.01
2023-01-25T04:57:00.307Z,1021.81
2023-01-25T04:57:46.267Z,1021.81
2023-01-25T04:58:32.282Z,1021.91
2023-01-25T04:59:18.216Z,1021.81
2023-01-25T05:00:04.373Z,1021.91
2023-01-25T05:00:50.393Z,1021.91
2023-01-25T05:01:36.318Z,1021.81
2023-01-25T05:02:22.375Z,1021.81
2023-01-25T05:03:08.385Z,1021.71
2023-01-25T05:03:54.298Z,1021.71
2023-01-25T05:04:40.287Z,1021.81
2023-01-25T05:05:26.272Z,1021.71
2023-01-25T05:06:12.372Z,1021.91
2023-01-25T05:06:58.267Z,1021.81
2023-01-25T05:07:44.284Z,1021.81
2023-01-25T05:08:30.290Z,1021.50
2023-01-25T05:09:16.360Z,1021.81
2023-01-25T05:10:02.270Z,1021.91
2023-01-25T05:10:48.240Z,1021.91
2023-01-25T05:11:34.293Z,1021.71
2023-01-25T05:12:20.300Z,1021.50
2023-01-25T05:13:06.296Z,1021.60
2023-01-25T05:13:52.254Z,1021.60
2023-01-25T05:14:38.270Z,1021.50
2023-01-25T05:15:24.387Z,1021.50
2023-01-25T05:16:10.402Z,1021.91
2023-01-25T05:16:56.388Z,1021.91
2023-01-25T05:17:42.329Z,1021.71
2023-01-25T05:18:35.782Z,1021.60
2023-01-25T05:19:14.350Z,1021.81
2023-01-25T05:20:00.319Z,1021.60
2023-01-25T05:20:46.420Z,1021.60
2023-01-25T05:21:32.325Z,1021.60
2023-01-25T05:22:18.288Z,1021.50
2023-01-25T05:23:04.276Z,1021.50
2023-01-25T05:23:50.358Z,1021.50
2023-01-25T05:24:36.357Z,1021.60
2023-01-25T05:25:22.901Z,1021.71
2023-01-25T05:26:08.299Z,1021.60
2023-01-25T05:26:54.404Z,1021.60
2023-01-25T05:27:40.336Z,1021.50
2023-01-25T05:28:26.434Z,1021.60
2023-01-25T05:29:12.391Z,1021.60
2023-01-25T05:29:58.390Z,1021.71
2023-01-25T05:30:44.563Z,1021.71
2023-01-25T05:31:30.380Z,1021.30
2023-01-25T05:32:16.377Z,1021.50
2023-01-25T05:33:02.420Z,1021.40
2023-01-25T05:33:48.404Z,1021.40
2023-01-25T05:34:34.810Z,1021.30
2023-01-25T05:35:20.409Z,1021.50
2023-01-25T05:36:06.342Z,1021.20
2023-01-25T05:36:52.386Z,1021.20
2023-01-25T05:37:38.380Z,1021.20
2023-01-25T05:38:24.375Z,1021.20
2023-01-25T05:39:10.358Z,1021.30
2023-01-25T05:39:56.459Z,1021.30
2023-01-25T05:40:42.450Z,1021.20
2023-01-25T05:41:28.493Z,1021.40
2023-01-25T05:42:14.434Z,1021.20
2023-01-25T05:43:00.544Z,1021.40
2023-01-25T05:43:46.480Z,1021.40
2023-01-25T05:44:32.394Z,1021.30
2023-01-25T05:45:18.499Z,1021.50
2023-01-25T05:46:04.415Z,1021.40
2023-01-25T05:46:50.427Z,1021.40
2023-01-25T05:47:36.384Z,1021.20
2023-01-25T05:48:23.199Z,1021.20
2023-01-25T05:49:08.386Z,1021.50
2023-01-25T05:49:54.412Z,1021.50
2023-01-25T05:50:40.408Z,1021.50
2023-01-25T05:51:26.433Z,1021.30
2023-01-25T05:52:12.439Z,1021.20
2023-01-25T05:52:58.413Z,1021.30
2023-01-25T05:53:44.410Z,1021.30
2023-01-25T05:54:30.437Z,1021.20
2023-01-25T05:55:16.612Z,1021.10
2023-01-25T05:56:02.361Z,1021.20
2023-01-25T05:56:48.367Z,1021.20
2023-01-25T05:57:34.437Z,1021.30
2023-01-25T05:58:20.468Z,1021.40
2023-01-25T05:59:06.435Z,1021.20
2023-01-25T05:59:52.424Z,1021.20
2023-01-25T06:00:38.440Z,1021.30
2023-01-25T06:01:24.540Z,1021.60
2023-01-25T06:02:10.455Z,1021.30
2023-01-25T06:02:56.658Z,1021.30
2023-01-25T06:03:42.500Z,1021.10
2023-01-25T06:04:28.440Z,1021.20
2023-01-25T06:05:14.386Z,1021.50
2023-01-25T06:06:00.521Z,1021.40
2023-01-25T06:06:46.439Z,1021.40
2023-01-25T06:07:32.422Z,1021.20
2023-01-25T06:08:18.383Z,1021.30
2023-01-25T06:09:04.433Z,1021.20
2023-01-25T06:09:50.395Z,1021.20
2023-01-25T06:10:36.511Z,1021.10
2023-01-25T06:11:23.083Z,1020.89
2023-01-25T06:12:08.429Z,1021.10
2023-01-25T06:12:54.464Z,1021.10
2023-01-25T06:13:40.416Z,1021.30
2023-01-25T06:14:26.490Z,1021.10
2023-01-25T06:15:12.461Z,1021.10
2023-01-25T06:15:58.605Z,1021.20
2023-01-25T06:16:44.422Z,1021.20
2023-01-25T06:17:30.499Z,1021.40
2023-01-25T06:18:16.577Z,1021.20
2023-01-25T06:19:02.554Z,1021.30
2023-01-25T06:19:48.478Z,1021.30
2023-01-25T06:20:34.566Z,1020.99
2023-01-25T06:21:20.513Z,1021.10
2023-01-25T06:22:06.460Z,1020.99
2023-01-25T06:22:52.436Z,1020.99
2023-01-25T06:23:38.493Z,1021.20
2023-01-25T06:24:24.585Z,1021.30
2023-01-25T06:25:10.864Z,1021.30
2023-01-25T06:25:56.476Z,1021.30
2023-01-25T06:26:42.517Z,1021.40
2023-01-25T06:27:28.557Z,1021.20
2023-01-25T06:28:14.514Z,1021.20
2023-01-25T06:29:00.576Z,1021.10
2023-01-25T06:29:46.532Z,1021.10
2023-01-25T06:30:32.633Z,1021.10
2023-01-25T06:31:18.644Z,1021.10
2023-01-25T06:32:04.649Z,1021.40
2023-01-25T06:32:50.641Z,1021.40
2023-01-25T06:33:36.552Z,1021.30
2023-01-25T06:34:23.413Z,1021.40
2023-01-25T06:35:08.939Z,1021.20
2023-01-25T06:35:54.519Z,1021.20
2023-01-25T06:36:40.478Z,1021.40
2023-01-25T06:37:26.557Z,1021.40
2023-01-25T06:38:12.663Z,1021.50
2023-01-25T06:38:58.534Z,1021.30
2023-01-25T06:39:44.513Z,1021.30
2023-01-25T06:40:30.546Z,1021.20
2023-01-25T06:41:16.608Z,1021.10
2023-01-25T06:42:02.472Z,1021.40
2023-01-25T06:42:48.536Z,1021.40
2023-01-25T06:43:34.535Z,1021.30
2023-01-25T06:44:20.548Z,1021.40
2023-01-25T06:45:07.387Z,1021.30
2023-01-25T06:45:52.605Z,1021.30
2023-01-25T06:46:38.641Z,1021.30
2023-01-25T06:47:24.549Z,1021.20
2023-01-25T06:48:11.638Z,1021.20
2023-01-25T06:48:56.602Z,1021.20
2023-01-25T06:49:42.562Z,1021.10
2023-01-25T06:50:28.548Z,1021.20
2023-01-25T06:51:14.541Z,1021.20
2023-01-25T06:52:00.649Z,1021.50
2023-01-25T06:52:46.638Z,1021.50
2023-01-25T06:53:32.609Z,1021.30
2023-01-25T06:54:18.550Z,1021.30
2023-01-25T06:55:04.604Z,1021.30
2023-01-25T06:55:50.668Z,1021.30
2023-01-25T06:56:36.641Z,1021.20
2023-01-25T06:57:23.096Z,1021.20
2023-01-25T06:58:08.672Z,1021.30
2023-01-25T06:58:54.570Z,1021.30
2023-01-25T06:59:40.733Z,1021.20
2023-01-25T07:00:26.633Z,1021.10
2023-01-25T07:01:12.812Z,1021.10
2023-01-25T07:01:58.707Z,1021.20
2023-01-25T07:02:44.612Z,1021.20
2023-01-25T07:03:30.645Z,1021.10
2023-01-25T07:04:16.685Z,1020.99
2023-01-25T07:05:02.611Z,1021.30
2023-01-25T07:05:48.597Z,1021.30
2023-01-25T07:06:34.644Z,1021.30
2023-01-25T07:07:20.618Z,1021.30
2023-01-25T07:08:06.589Z,1021.40
2023-01-25T07:08:52.660Z,1021.40
2023-01-25T07:09:38.631Z,1021.20
2023-01-25T07:10:24.632Z,1021.10
2023-01-25T07:11:10.558Z,1021.10
2023-01-25T07:11:56.753Z,1021.10
2023-01-25T07:12:42.635Z,1021.10
2023-01-25T07:13:28.693Z,1021.20
2023-01-25T07:14:14.620Z,1021.20
2023-01-25T07:15:00.848Z,1021.30
2023-01-25T07:15:46.759Z,1021.30
2023-01-25T07:16:32.658Z,1021.40
2023-01-25T07:17:18.649Z,1021.40
2023-01-25T07:18:15.674Z,1021.10
2023-01-25T07:18:50.622Z,1021.10
2023-01-25T07:19:36.725Z,1021.20
2023-01-25T07:20:23.200Z,1021.20
2023-01-25T07:21:08.645Z,1021.10
2023-01-25T07:21:54.679Z,1021.10
2023-01-25T07:22:40.758Z,1021.20
2023-01-25T07:23:26.678Z,1020.99
2023-01-25T07:24:12.756Z,1021.20
2023-01-25T07:24:58.682Z,1021.20
2023-01-25T07:25:44.731Z,1021.20
2023-01-25T07:26:30.687Z,1021.30
2023-01-25T07:27:16.723Z,1020.99
2023-01-25T07:28:02.666Z,1021.20
2023-01-25T07:28:48.609Z,1021.20
2023-01-25T07:29:34.672Z,1021.30
2023-01-25T07:30:20.717Z,1021.30
2023-01-25T07:31:06.753Z,1021.20
2023-01-25T07:31:52.739Z,1021.20
2023-01-25T07:32:38.633Z,1021.20
2023-01-25T07:33:24.722Z,1021.10
2023-01-25T07:34:10.662Z,1021.20
2023-01-25T07:34:56.717Z,1021.20
2023-01-25T07:35:42.683Z,1021.20
2023-01-25T07:36:28.703Z,1021.10
2023-01-25T07:37:14.662Z,1021.30
2023-01-25T07:38:00.820Z,1021.20
2023-01-25T07:38:46.732Z,1021.20
2023-01-25T07:39:32.633Z,1021.50
2023-01-25T07:40:18.654Z,1021.30
2023-01-25T07:41:04.710Z,1021.30
2023-01-25T07:41:50.795Z,1021.30
2023-01-25T07:42:36.700Z,1021.20
2023-01-25T07:43:23.384Z,1021.20
2023-01-25T07:44:08.747Z,1021.20
2023-01-25T07:44:54.703Z,1021.20
2023-01-25T07:45:40.826Z,1021.20
2023-01-25T07:46:26.720Z,1021.40
2023-01-25T07:47:12.773Z,1021.30
2023-01-25T07:47:58.710Z,1021.10
2023-01-25T07:48:44.730Z,1021.10
2023-01-25T07:49:30.824Z,1021.20
2023-01-25T07:50:16.737Z,1021.20
2023-01-25T07:51:02.768Z,1021.30
2023-01-25T07:51:48.720Z,1021.30
2023-01-25T07:52:34.727Z,1021.40
2023-01-25T07:53:20.793Z,1021.30
2023-01-25T07:54:06.735Z,1021.30
2023-01-25T07:54:52.666Z,1021.30
2023-01-25T07:55:38.803Z,1021.30
2023-01-25T07:56:24.801Z,1021.40
2023-01-25T07:57:10.820Z,1021.20
2023-01-25T07:57:56.807Z,1021.20
2023-01-25T07:58:42.853Z,1021.60
2023-01-25T07:59:28.928Z,1021.20
2023-01-25T08:00:14.935Z,1021.20
2023-01-25T08:01:00.870Z,1021.30
2023-01-25T08:01:46.880Z,1021.30
2023-01-25T08:02:32.814Z,1021.20
2023-01-25T08:03:18.798Z,1021.30
2023-01-25T08:04:04.920Z,1021.40
2023-01-25T08:04:50.871Z,1021.40
2023-01-25T08:05:36.049Z,1021.40
2023-01-25T08:06:23.565Z,1021.10
2023-01-25T08:07:08.889Z,1021.50
2023-01-25T08:07:54.831Z,1021.50
2023-01-25T08:08:40.827Z,1021.30
2023-01-25T08:09:26.911Z,1021.30
2023-01-25T08:10:12.945Z,1021.10
2023-01-25T08:10:58.935Z,1021.20
2023-01-25T08:11:44.842Z,1021.20
2023-01-25T08:12:30.886Z,1021.20
2023-01-25T08:13:16.914Z,1021.30
2023-01-25T08:14:02.860Z,1021.30
2023-01-25T08:14:48.890Z,1021.30
2023-01-25T08:15:34.931Z,1021.30
2023-01-25T08:16:20.863Z,1021.30
2023-01-25T08:17:06.837Z,1021.20
2023-01-25T08:17:52.881Z,1021.20
2023-01-25T08:18:38.895Z,1021.20
2023-01-25T08:19:24.921Z,1021.10
2023-01-25T08:20:10.955Z,1020.89
2023-01-25T08:20:59.623Z,1021.10
2023-01-25T08:21:42.895Z,1021.10
2023-01-25T08:22:29.029Z,1021.20
2023-01-25T08:23:14.898Z,1021.10
2023-01-25T08:24:01.015Z,1021.20
2023-01-25T08:24:46.937Z,1021.20
2023-01-25T08:25:32.928Z,1021.20
2023-01-25T08:26:18.942Z,1021.30
2023-01-25T08:27:04.921Z,1021.40
2023-01-25T08:27:50.936Z,1021.40
2023-01-25T08:28:36.879Z,1021.20
2023-01-25T08:29:23.523Z,1021.20
2023-01-25T08:30:09.053Z,1021.30
2023-01-25T08:30:57.531Z,1021.30
2023-01-25T08:31:40.932Z,1021.10
2023-01-25T08:32:27.003Z,1021.50
2023-01-25T08:33:12.907Z,1021.40
2023-01-25T08:33:58.984Z,1021.20
2023-01-25T08:34:44.881Z,1021.20
2023-01-25T08:35:31.030Z,1021.30
2023-01-25T08:36:16.865Z,1021.50
2023-01-25T08:37:02.924Z,1021.30
2023-01-25T08:37:48.894Z,1021.30
2023-01-25T08:38:34.964Z,1021.10
2023-01-25T08:39:20.989Z,1020.99
2023-01-25T08:40:07.460Z,1021.30
2023-01-25T08:40:52.966Z,1021.30
2023-01-25T08:41:38.990Z,1021.20
2023-01-25T08:42:25.002Z,1020.99
2023-01-25T08:43:10.885Z,1021.10
2023-01-25T08:43:57.007Z,1021.10
2023-01-25T08:44:42.955Z,1021.40
2023-01-25T08:45:28.998Z,1021.20
2023-01-25T08:46:14.930Z,1021.10
2023-01-25T08:47:01.019Z,1021.10
2023-01-25T08:47:46.976Z,1021.10
2023-01-25T08:48:33.004Z,1021.10
2023-01-25T08:49:19.042Z,1020.99
2023-01-25T08:50:04.972Z,1021.10
2023-01-25T08:50:51.005Z,1021.10
2023-01-25T08:51:36.947Z,1020.99
2023-01-25T08:52:23.571Z,1021.10
2023-01-25T08:53:08.996Z,1020.99
2023-01-25T08:53:54.976Z,1020.99
2023-01-25T08:54:41.063Z,1020.99
2023-01-25T08:55:27.045Z,1021.10
2023-01-25T08:56:13.016Z,1021.20
2023-01-25T08:56:59.007Z,1021.30
2023-01-25T08:57:44.947Z,1021.30
2023-01-25T08:58:31.061Z,1020.79
2023-01-25T08:59:17.023Z,1020.99
2023-01-25T09:00:03.176Z,1020.99
2023-01-25T09:00:49.004Z,1020.99
2023-01-25T09:01:35.030Z,1020.99
2023-01-25T09:02:21.119Z,1020.99
2023-01-25T09:03:07.111Z,1021.10
2023-01-25T09:03:53.041Z,1021.10
2023-01-25T09:04:39.004Z,1020.89
2023-01-25T09:05:25.027Z,1020.69
2023-01-25T09:06:11.096Z,1020.99
2023-01-25T09:06:57.077Z,1020.99
2023-01-25T09:07:43.049Z,1020.89
2023-01-25T09:08:28.995Z,1021.10
2023-01-25T09:09:14.968Z,1020.79
2023-01-25T09:10:01.019Z,1020.79
2023-01-25T09:10:47.040Z,1020.79
2023-01-25T09:11:32.181Z,1020.79
2023-01-25T09:12:19.119Z,1020.59
2023-01-25T09:13:07.603Z,1020.89
2023-01-25T09:13:51.227Z,1020.89
2023-01-25T09:14:36.218Z,1020.89
2023-01-25T09:15:23.514Z,1020.89
2023-01-25T09:16:09.093Z,1020.89